Date,TemperatureHighF,TemperatureAvgF,TemperatureLowF,DewpointHighF,DewpointAvgF,DewpointLowF,HumidityHigh,HumidityAvg,HumidityLow,PressureMaxIn,PressureMinIn,WindSpeedMaxMPH,WindSpeedAvgMPH,GustSpeedMaxMPH,PrecipitationSumIn
2013-1-1,52,42,35,37,32,28,85,69,51,30.01,29.96,2,1,0,0.00
2013-1-2,55,44,36,33,30,27,71,59,43,30.00,29.91,2,1,0,0.00
2013-1-3,55,44,38,41,32,25,74,64,54,30.01,29.93,3,1,0,0.00
2013-1-4,56,46,39,37,33,28,76,63,49,30.04,29.96,3,1,0,0.00
2013-1-5,49,46,42,43,40,35,92,81,74,30.02,29.85,2,0,0,0.00
2013-1-6,44,42,41,42,40,39,94,93,90,29.96,29.83,2,1,0,0.00
2013-1-7,56,46,39,44,41,37,93,83,64,29.99,29.93,2,0,0,0.00
2013-1-8,57,48,42,46,42,39,93,82,67,29.99,29.90,2,1,0,0.00
2013-1-9,50,44,40,45,40,34,89,83,79,29.91,29.76,3,1,0,0.00
2013-1-10,47,41,37,32,31,30,80,70,53,29.91,29.83,5,2,0,0.00
2013-1-11,48,40,35,35,31,28,85,70,54,30.00,29.89,2,1,0,0.00
2013-1-12,48,40,34,31,26,22,83,59,35,30.00,29.90,1,1,0,0.00
2013-1-13,47,38,30,22,17,9,64,46,26,30.00,29.93,5,2,0,0.00
2013-1-14,52,41,36,19,12,8,45,30,20,30.13,29.93,5,2,0,0.00
2013-1-15,50,41,37,28,23,18,57,48,43,30.22,30.14,3,1,0,0.00
2013-1-16,58,45,36,35,29,25,72,55,38,30.17,30.03,2,1,0,0.00
2013-1-17,65,49,40,38,29,25,59,47,29,30.03,29.93,2,0,0,0.00
2013-1-18,66,51,42,36,30,25,60,46,25,29.99,29.91,2,1,0,0.00
2013-1-19,65,54,46,36,29,22,48,40,30,30.01,29.94,3,2,0,0.00
2013-1-20,65,54,44,34,28,20,52,37,28,29.99,29.91,3,1,0,0.00
2013-1-21,64,54,45,40,33,17,58,46,27,29.93,29.88,2,1,0,0.00
2013-1-22,60,51,43,43,38,30,69,62,48,29.88,29.79,3,1,0,0.00
2013-1-23,53,51,47,48,42,37,88,73,57,29.84,29.75,2,1,0,0.00
2013-1-24,55,50,47,50,47,44,94,90,82,29.95,29.83,1,0,0,0.00
2013-1-25,64,55,50,54,51,48,94,85,70,29.96,29.83,3,1,0,0.00
2013-1-26,56,50,43,49,43,37,91,77,52,29.83,29.76,4,1,0,0.00
2013-1-27,54,45,39,36,34,30,81,66,40,29.91,29.83,4,2,0,0.00
2013-1-28,56,46,40,39,35,33,76,68,47,30.03,29.91,4,1,0,0.00
2013-1-29,57,48,41,39,37,36,82,67,46,30.10,30.03,5,1,0,0.00
2013-1-30,67,57,50,41,38,35,60,50,34,30.10,30.02,3,2,0,0.00
2013-1-31,65,54,44,45,42,37,78,64,49,30.05,29.96,2,1,0,0.00